sensor_id;sensor_type;location;lat;lon;timestamp;pressure;altitude;pressure_sealevel;temperature;humidity
9289;BME280;4683;50.864;12.086;2023-01-09T00:01:59;97544.38;;;8.13;100.00
9289;BME280;4683;50.864;12.086;2023-01-09T00:04:27;97543.56;;;8.13;100.00
9289;BME280;4683;50.864;12.086;2023-01-09T00:06:55;97545.34;;;8.26;100.00
9289;BME280;4683;50.864;12.086;2023-01-09T00:09:24;97540.91;;;8.39;100.00
9289;BME280;4683;50.864;12.086;2023-01-09T00:11:55;97536.44;;;8.53;100.00
9289;BME280;4683;50.864;12.086;2023-01-09T00:14:23;97531.19;;;8.60;100.00
9289;BME280;4683;50.864;12.086;2023-01-09T00:16:55;97525.53;;;8.63;100.00
9289;BME280;4683;50.864;12.086;2023-01-09T00:19:23;97524.69;;;8.69;100.00
9289;BME280;4683;50.864;12.086;2023-01-09T00:21:52;97514.59;;;8.66;100.00
9289;BME280;4683;50.864;12.086;2023-01-09T00:24:21;97514.81;;;8.64;100.00
9289;BME280;4683;50.864;12.086;2023-01-09T00:26:49;97508.53;;;8.66;100.00
9289;BME280;4683;50.864;12.086;2023-01-09T00:29:18;97503.63;;;8.76;100.00
9289;BME280;4683;50.864;12.086;2023-01-09T00:31:46;97496.38;;;8.71;100.00
9289;BME280;4683;50.864;12.086;2023-01-09T00:34:16;97482.81;;;8.74;100.00
9289;BME280;4683;50.864;12.086;2023-01-09T00:36:45;97486.25;;;8.81;100.00
9289;BME280;4683;50.864;12.086;2023-01-09T00:39:14;97483.78;;;8.86;100.00
9289;BME280;4683;50.864;12.086;2023-01-09T00:41:50;97474.09;;;8.87;100.00
9289;BME280;4683;50.864;12.086;2023-01-09T00:44:23;97477.28;;;8.89;100.00
9289;BME280;4683;50.864;12.086;2023-01-09T00:46:58;97472.44;;;8.93;100.00
9289;BME280;4683;50.864;12.086;2023-01-09T00:49:35;97467.13;;;8.99;100.00
9289;BME280;4683;50.864;12.086;2023-01-09T00:52:05;97453.78;;;9.01;100.00
9289;BME280;4683;50.864;12.086;2023-01-09T00:54:35;97450.94;;;9.02;100.00
9289;BME280;4683;50.864;12.086;2023-01-09T00:57:04;97452.53;;;9.03;100.00
9289;BME280;4683;50.864;12.086;2023-01-09T00:59:33;97450.13;;;9.02;100.00
9289;BME280;4683;50.864;12.086;2023-01-09T01:02:01;97450.97;;;8.96;100.00
9289;BME280;4683;50.864;12.086;2023-01-09T01:04:30;97448.81;;;8.79;100.00
9289;BME280;4683;50.864;12.086;2023-01-09T01:07:18;97446.59;;;8.83;100.00
9289;BME280;4683;50.864;12.086;2023-01-09T01:10:05;97453.88;;;8.81;100.00
9289;BME280;4683;50.864;12.086;2023-01-09T01:12:34;97451.72;;;8.64;100.00
9289;BME280;4683;50.864;12.086;2023-01-09T01:15:03;97452.94;;;8.62;100.00
9289;BME280;4683;50.864;12.086;2023-01-09T01:17:34;97452.34;;;8.60;100.00
9289;BME280;4683;50.864;12.086;2023-01-09T01:20:04;97449.31;;;8.56;100.00
9289;BME280;4683;50.864;12.086;2023-01-09T01:22:34;97451.50;;;8.73;100.00
9289;BME280;4683;50.864;12.086;2023-01-09T01:25:04;97451.16;;;8.56;100.00
9289;BME280;4683;50.864;12.086;2023-01-09T01:27:32;97457.59;;;8.53;100.00
9289;BME280;4683;50.864;12.086;2023-01-09T01:30:02;97454.63;;;8.50;100.00
9289;BME280;4683;50.864;12.086;2023-01-09T01:32:30;97460.00;;;8.68;100.00
9289;BME280;4683;50.864;12.086;2023-01-09T01:35:02;97449.91;;;8.65;100.00
9289;BME280;4683;50.864;12.086;2023-01-09T01:37:31;97446.91;;;8.55;100.00
9289;BME280;4683;50.864;12.086;2023-01-09T01:40:03;97443.47;;;8.54;100.00
9289;BME280;4683;50.864;12.086;2023-01-09T01:42:32;97437.81;;;8.51;100.00
9289;BME280;4683;50.864;12.086;2023-01-09T01:45:10;97437.16;;;8.62;100.00
9289;BME280;4683;50.864;12.086;2023-01-09T01:47:47;97430.13;;;8.56;100.00
9289;BME280;4683;50.864;12.086;2023-01-09T01:50:25;97422.47;;;8.48;100.00
9289;BME280;4683;50.864;12.086;2023-01-09T01:53:01;97425.72;;;8.50;100.00
9289;BME280;4683;50.864;12.086;2023-01-09T01:55:33;97412.31;;;8.58;100.00
9289;BME280;4683;50.864;12.086;2023-01-09T01:58:04;97415.91;;;8.77;100.00
9289;BME280;4683;50.864;12.086;2023-01-09T02:00:37;97414.00;;;8.91;100.00
9289;BME280;4683;50.864;12.086;2023-01-09T02:03:07;97413.09;;;9.03;100.00
9289;BME280;4683;50.864;12.086;2023-01-09T02:05:37;97412.72;;;9.00;100.00
9289;BME280;4683;50.864;12.086;2023-01-09T02:08:06;97403.72;;;8.82;100.00
9289;BME280;4683;50.864;12.086;2023-01-09T02:10:37;97400.25;;;8.88;100.00
9289;BME280;4683;50.864;12.086;2023-01-09T02:13:07;97406.63;;;8.99;100.00
9289;BME280;4683;50.864;12.086;2023-01-09T02:15:48;97405.59;;;9.07;100.00
9289;BME280;4683;50.864;12.086;2023-01-09T02:18:36;97400.53;;;8.74;100.00
9289;BME280;4683;50.864;12.086;2023-01-09T02:21:16;97397.66;;;8.82;100.00
9289;BME280;4683;50.864;12.086;2023-01-09T02:24:15;97394.47;;;8.73;100.00
9289;BME280;4683;50.864;12.086;2023-01-09T02:30:34;97373.75;;;8.52;100.00
9289;BME280;4683;50.864;12.086;2023-01-09T02:33:34;97377.28;;;8.71;100.00
9289;BME280;4683;50.864;12.086;2023-01-09T02:36:21;97380.72;;;8.71;100.00
9289;BME280;4683;50.864;12.086;2023-01-09T02:39:08;97379.97;;;8.64;100.00
9289;BME280;4683;50.864;12.086;2023-01-09T02:41:47;97377.56;;;8.56;100.00
9289;BME280;4683;50.864;12.086;2023-01-09T02:44:21;97365.84;;;8.58;100.00
9289;BME280;4683;50.864;12.086;2023-01-09T02:47:04;97367.22;;;8.68;100.00
9289;BME280;4683;50.864;12.086;2023-01-09T02:49:36;97366.75;;;8.71;100.00
9289;BME280;4683;50.864;12.086;2023-01-09T02:52:28;97371.47;;;8.62;100.00
9289;BME280;4683;50.864;12.086;2023-01-09T02:55:07;97353.69;;;8.64;100.00
9289;BME280;4683;50.864;12.086;2023-01-09T02:57:55;97355.00;;;8.42;100.00
9289;BME280;4683;50.864;12.086;2023-01-09T03:00:38;97349.13;;;8.46;100.00
9289;BME280;4683;50.864;12.086;2023-01-09T03:03:16;97343.75;;;8.66;100.00
9289;BME280;4683;50.864;12.086;2023-01-09T03:05:53;97351.13;;;8.82;100.00
9289;BME280;4683;50.864;12.086;2023-01-09T03:08:31;97340.56;;;8.89;100.00
9289;BME280;4683;50.864;12.086;2023-01-09T03:11:03;97343.38;;;8.94;100.00
9289;BME280;4683;50.864;12.086;2023-01-09T03:13:40;97340.19;;;8.85;100.00
9289;BME280;4683;50.864;12.086;2023-01-09T03:16:16;97338.97;;;8.88;100.00
9289;BME280;4683;50.864;12.086;2023-01-09T03:18:50;97344.75;;;8.65;100.00
9289;BME280;4683;50.864;12.086;2023-01-09T03:21:19;97335.69;;;8.61;100.00
9289;BME280;4683;50.864;12.086;2023-01-09T03:23:52;97340.38;;;8.52;100.00
9289;BME280;4683;50.864;12.086;2023-01-09T03:26:21;97332.94;;;8.43;100.00
9289;BME280;4683;50.864;12.086;2023-01-09T03:28:50;97325.47;;;8.46;100.00
9289;BME280;4683;50.864;12.086;2023-01-09T03:31:20;97331.44;;;8.60;100.00
9289;BME280;4683;50.864;12.086;2023-01-09T03:33:50;97339.47;;;8.72;100.00
9289;BME280;4683;50.864;12.086;2023-01-09T03:36:20;97331.31;;;8.80;100.00
9289;BME280;4683;50.864;12.086;2023-01-09T03:38:49;97333.38;;;8.78;100.00
9289;BME280;4683;50.864;12.086;2023-01-09T03:41:18;97323.66;;;8.78;100.00
9289;BME280;4683;50.864;12.086;2023-01-09T03:43:47;97319.69;;;8.62;100.00
9289;BME280;4683;50.864;12.086;2023-01-09T03:46:15;97321.44;;;8.75;100.00
9289;BME280;4683;50.864;12.086;2023-01-09T03:48:44;97305.69;;;8.75;100.00
9289;BME280;4683;50.864;12.086;2023-01-09T03:51:14;97304.22;;;8.86;100.00
9289;BME280;4683;50.864;12.086;2023-01-09T03:53:42;97296.66;;;8.89;100.00
9289;BME280;4683;50.864;12.086;2023-01-09T03:56:11;97300.94;;;8.91;100.00
9289;BME280;4683;50.864;12.086;2023-01-09T03:58:40;97285.56;;;8.87;100.00
9289;BME280;4683;50.864;12.086;2023-01-09T04:01:08;97287.59;;;8.85;100.00
9289;BME280;4683;50.864;12.086;2023-01-09T04:03:39;97273.28;;;8.81;100.00
9289;BME280;4683;50.864;12.086;2023-01-09T04:06:07;97275.94;;;8.81;100.00
9289;BME280;4683;50.864;12.086;2023-01-09T04:08:37;97277.94;;;8.79;100.00
9289;BME280;4683;50.864;12.086;2023-01-09T04:11:06;97270.69;;;8.75;100.00
9289;BME280;4683;50.864;12.086;2023-01-09T04:13:34;97263.44;;;8.70;100.00
9289;BME280;4683;50.864;12.086;2023-01-09T04:16:03;97269.13;;;8.67;100.00
9289;BME280;4683;50.864;12.086;2023-01-09T04:18:31;97282.50;;;8.66;100.00
9289;BME280;4683;50.864;12.086;2023-01-09T04:21:00;97285.50;;;8.69;100.00
9289;BME280;4683;50.864;12.086;2023-01-09T04:23:28;97286.09;;;8.71;100.00
9289;BME280;4683;50.864;12.086;2023-01-09T04:26:04;97290.34;;;8.72;100.00
9289;BME280;4683;50.864;12.086;2023-01-09T04:28:33;97290.94;;;8.74;100.00
9289;BME280;4683;50.864;12.086;2023-01-09T04:31:02;97291.72;;;8.75;100.00
9289;BME280;4683;50.864;12.086;2023-01-09T04:33:31;97282.03;;;8.75;100.00
9289;BME280;4683;50.864;12.086;2023-01-09T04:36:00;97279.59;;;8.74;100.00
9289;BME280;4683;50.864;12.086;2023-01-09T04:38:29;97281.00;;;8.76;100.00
9289;BME280;4683;50.864;12.086;2023-01-09T04:40:58;97278.19;;;8.71;100.00
9289;BME280;4683;50.864;12.086;2023-01-09T04:43:27;97277.19;;;8.72;100.00
9289;BME280;4683;50.864;12.086;2023-01-09T04:45:56;97277.56;;;8.76;100.00
9289;BME280;4683;50.864;12.086;2023-01-09T04:48:24;97284.66;;;8.75;100.00
9289;BME280;4683;50.864;12.086;2023-01-09T04:50:53;97279.19;;;8.77;100.00
9289;BME280;4683;50.864;12.086;2023-01-09T04:53:21;97278.41;;;8.70;100.00
9289;BME280;4683;50.864;12.086;2023-01-09T04:55:50;97269.22;;;8.54;100.00
9289;BME280;4683;50.864;12.086;2023-01-09T04:58:18;97268.38;;;8.60;100.00
9289;BME280;4683;50.864;12.086;2023-01-09T05:00:48;97255.41;;;8.65;100.00
9289;BME280;4683;50.864;12.086;2023-01-09T05:03:17;97256.63;;;8.62;100.00
9289;BME280;4683;50.864;12.086;2023-01-09T05:05:45;97264.34;;;8.57;100.00
9289;BME280;4683;50.864;12.086;2023-01-09T05:08:13;97251.00;;;8.59;100.00
9289;BME280;4683;50.864;12.086;2023-01-09T05:10:42;97255.06;;;8.55;100.00
9289;BME280;4683;50.864;12.086;2023-01-09T05:13:10;97264.34;;;8.57;100.00
9289;BME280;4683;50.864;12.086;2023-01-09T05:15:43;97265.19;;;8.51;100.00
9289;BME280;4683;50.864;12.086;2023-01-09T05:18:13;97261.94;;;8.56;100.00
9289;BME280;4683;50.864;12.086;2023-01-09T05:20:41;97261.53;;;8.59;100.00
9289;BME280;4683;50.864;12.086;2023-01-09T05:23:12;97263.34;;;8.58;100.00
9289;BME280;4683;50.864;12.086;2023-01-09T05:25:41;97273.25;;;8.56;100.00
9289;BME280;4683;50.864;12.086;2023-01-09T05:28:09;97269.72;;;8.37;100.00
9289;BME280;4683;50.864;12.086;2023-01-09T05:30:38;97265.53;;;8.23;100.00
9289;BME280;4683;50.864;12.086;2023-01-09T05:33:07;97277.25;;;8.27;100.00
9289;BME280;4683;50.864;12.086;2023-01-09T05:35:36;97291.00;;;8.16;100.00
9289;BME280;4683;50.864;12.086;2023-01-09T05:38:05;97291.38;;;8.26;100.00
9289;BME280;4683;50.864;12.086;2023-01-09T05:40:33;97293.75;;;8.34;100.00
9289;BME280;4683;50.864;12.086;2023-01-09T05:43:02;97286.56;;;8.23;100.00
9289;BME280;4683;50.864;12.086;2023-01-09T05:45:31;97281.31;;;8.17;100.00
9289;BME280;4683;50.864;12.086;2023-01-09T05:47:59;97283.56;;;8.13;100.00
9289;BME280;4683;50.864;12.086;2023-01-09T05:50:27;97296.94;;;8.05;100.00
9289;BME280;4683;50.864;12.086;2023-01-09T05:52:57;97295.28;;;8.04;100.00
9289;BME280;4683;50.864;12.086;2023-01-09T05:55:28;97291.69;;;8.05;100.00
9289;BME280;4683;50.864;12.086;2023-01-09T05:57:56;97297.69;;;8.12;100.00
9289;BME280;4683;50.864;12.086;2023-01-09T06:00:25;97303.97;;;8.11;100.00
9289;BME280;4683;50.864;12.086;2023-01-09T06:02:54;97305.34;;;8.20;100.00
9289;BME280;4683;50.864;12.086;2023-01-09T06:05:22;97305.75;;;8.17;100.00
9289;BME280;4683;50.864;12.086;2023-01-09T06:07:50;97299.63;;;8.30;100.00
9289;BME280;4683;50.864;12.086;2023-01-09T06:10:20;97290.78;;;8.24;100.00
9289;BME280;4683;50.864;12.086;2023-01-09T06:12:50;97287.75;;;8.21;100.00
9289;BME280;4683;50.864;12.086;2023-01-09T06:15:20;97279.88;;;8.21;100.00
9289;BME280;4683;50.864;12.086;2023-01-09T06:17:48;97280.94;;;8.13;100.00
9289;BME280;4683;50.864;12.086;2023-01-09T06:20:17;97280.94;;;8.13;100.00
9289;BME280;4683;50.864;12.086;2023-01-09T06:22:47;97291.06;;;8.09;100.00
9289;BME280;4683;50.864;12.086;2023-01-09T06:25:18;97293.50;;;8.04;100.00
9289;BME280;4683;50.864;12.086;2023-01-09T06:27:49;97290.88;;;8.04;100.00
9289;BME280;4683;50.864;12.086;2023-01-09T06:30:19;97299.31;;;8.13;100.00
9289;BME280;4683;50.864;12.086;2023-01-09T06:32:48;97300.69;;;8.22;100.00
9289;BME280;4683;50.864;12.086;2023-01-09T06:35:17;97301.75;;;8.14;100.00
9289;BME280;4683;50.864;12.086;2023-01-09T06:37:46;97306.94;;;8.21;100.00
9289;BME280;4683;50.864;12.086;2023-01-09T06:40:18;97309.22;;;8.18;100.00
9289;BME280;4683;50.864;12.086;2023-01-09T06:42:49;97301.13;;;8.19;100.00
9289;BME280;4683;50.864;12.086;2023-01-09T06:45:17;97305.97;;;8.22;100.00
9289;BME280;4683;50.864;12.086;2023-01-09T06:47:46;97308.59;;;8.22;100.00
9289;BME280;4683;50.864;12.086;2023-01-09T06:50:16;97312.81;;;8.23;100.00
9289;BME280;4683;50.864;12.086;2023-01-09T06:52:45;97308.94;;;8.32;100.00
9289;BME280;4683;50.864;12.086;2023-01-09T06:55:13;97317.00;;;8.37;100.00
9289;BME280;4683;50.864;12.086;2023-01-09T06:57:43;97323.03;;;8.45;100.00
9289;BME280;4683;50.864;12.086;2023-01-09T07:00:14;97328.72;;;8.42;100.00
9289;BME280;4683;50.864;12.086;2023-01-09T07:02:43;97337.59;;;8.47;100.00
9289;BME280;4683;50.864;12.086;2023-01-09T07:05:12;97339.56;;;8.52;100.00
9289;BME280;4683;50.864;12.086;2023-01-09T07:07:40;97347.63;;;8.57;100.00
9289;BME280;4683;50.864;12.086;2023-01-09T07:10:13;97341.91;;;8.67;100.00
9289;BME280;4683;50.864;12.086;2023-01-09T07:12:41;97352.44;;;8.67;100.00
9289;BME280;4683;50.864;12.086;2023-01-09T07:15:12;97350.03;;;8.65;100.00
9289;BME280;4683;50.864;12.086;2023-01-09T07:17:45;97359.06;;;8.76;100.00
9289;BME280;4683;50.864;12.086;2023-01-09T07:20:15;97348.72;;;8.81;100.00
9289;BME280;4683;50.864;12.086;2023-01-09T07:22:44;97355.72;;;8.94;100.00
9289;BME280;4683;50.864;12.086;2023-01-09T07:25:12;97353.88;;;8.94;100.00
9289;BME280;4683;50.864;12.086;2023-01-09T07:27:41;97362.47;;;9.08;100.00
9289;BME280;4683;50.864;12.086;2023-01-09T07:30:13;97363.69;;;9.12;100.00
9289;BME280;4683;50.864;12.086;2023-01-09T07:32:41;97359.28;;;9.06;100.00
9289;BME280;4683;50.864;12.086;2023-01-09T07:35:10;97369.22;;;9.04;100.00
9289;BME280;4683;50.864;12.086;2023-01-09T07:37:45;97373.28;;;9.00;100.00
9289;BME280;4683;50.864;12.086;2023-01-09T07:40:14;97380.91;;;9.08;100.00
9289;BME280;4683;50.864;12.086;2023-01-09T07:42:43;97385.34;;;9.07;100.00
9289;BME280;4683;50.864;12.086;2023-01-09T07:45:14;97391.88;;;9.05;100.00
9289;BME280;4683;50.864;12.086;2023-01-09T07:47:43;97390.44;;;9.09;100.00
9289;BME280;4683;50.864;12.086;2023-01-09T07:50:11;97398.31;;;9.09;100.00
9289;BME280;4683;50.864;12.086;2023-01-09T07:52:40;97410.44;;;9.10;100.00
9289;BME280;4683;50.864;12.086;2023-01-09T07:55:12;97416.34;;;9.05;100.00
9289;BME280;4683;50.864;12.086;2023-01-09T07:57:41;97428.44;;;9.13;100.00
9289;BME280;4683;50.864;12.086;2023-01-09T08:00:11;97428.38;;;9.20;100.00
9289;BME280;4683;50.864;12.086;2023-01-09T08:02:41;97423.50;;;9.23;100.00
9289;BME280;4683;50.864;12.086;2023-01-09T08:05:10;97426.88;;;9.30;100.00
9289;BME280;4683;50.864;12.086;2023-01-09T08:07:42;97433.72;;;9.38;100.00
9289;BME280;4683;50.864;12.086;2023-01-09T08:10:12;97431.03;;;9.45;100.00
9289;BME280;4683;50.864;12.086;2023-01-09T08:12:42;97425.13;;;9.49;100.00
9289;BME280;4683;50.864;12.086;2023-01-09T08:15:11;97436.00;;;9.59;100.00
9289;BME280;4683;50.864;12.086;2023-01-09T08:17:42;97431.69;;;9.65;100.00
9289;BME280;4683;50.864;12.086;2023-01-09T08:20:13;97436.72;;;9.73;100.00
9289;BME280;4683;50.864;12.086;2023-01-09T08:22:43;97437.50;;;9.74;100.00
9289;BME280;4683;50.864;12.086;2023-01-09T08:25:20;97445.44;;;9.67;100.00
9289;BME280;4683;50.864;12.086;2023-01-09T08:27:48;97440.03;;;9.62;100.00
9289;BME280;4683;50.864;12.086;2023-01-09T08:30:18;97453.09;;;9.50;100.00
9289;BME280;4683;50.864;12.086;2023-01-09T08:32:52;97472.56;;;9.43;100.00
9289;BME280;4683;50.864;12.086;2023-01-09T08:35:21;97469.53;;;9.39;100.00
9289;BME280;4683;50.864;12.086;2023-01-09T08:37:50;97483.00;;;9.24;100.00
9289;BME280;4683;50.864;12.086;2023-01-09T08:40:20;97498.09;;;8.97;100.00
9289;BME280;4683;50.864;12.086;2023-01-09T08:42:48;97503.19;;;8.92;100.00
9289;BME280;4683;50.864;12.086;2023-01-09T08:45:38;97516.16;;;8.80;100.00
9289;BME280;4683;50.864;12.086;2023-01-09T08:48:25;97513.56;;;8.67;100.00
9289;BME280;4683;50.864;12.086;2023-01-09T08:50:54;97514.59;;;8.73;100.00
9289;BME280;4683;50.864;12.086;2023-01-09T08:53:23;97510.13;;;8.67;100.00
9289;BME280;4683;50.864;12.086;2023-01-09T08:55:52;97510.94;;;8.67;100.00
9289;BME280;4683;50.864;12.086;2023-01-09T08:58:20;97507.28;;;8.75;100.00
9289;BME280;4683;50.864;12.086;2023-01-09T09:00:49;97520.66;;;8.67;100.00
9289;BME280;4683;50.864;12.086;2023-01-09T09:03:18;97531.16;;;8.73;100.00
9289;BME280;4683;50.864;12.086;2023-01-09T09:05:49;97546.53;;;8.70;100.00
9289;BME280;4683;50.864;12.086;2023-01-09T09:08:19;97548.53;;;8.74;100.00
9289;BME280;4683;50.864;12.086;2023-01-09T09:10:47;97548.13;;;8.71;100.00
9289;BME280;4683;50.864;12.086;2023-01-09T09:13:16;97548.13;;;8.77;100.00
9289;BME280;4683;50.864;12.086;2023-01-09T09:15:44;97553.78;;;8.74;100.00
9289;BME280;4683;50.864;12.086;2023-01-09T09:18:13;97552.59;;;8.70;100.00
9289;BME280;4683;50.864;12.086;2023-01-09T09:20:42;97554.59;;;8.81;100.00
9289;BME280;4683;50.864;12.086;2023-01-09T09:23:11;97554.97;;;8.92;100.00
9289;BME280;4683;50.864;12.086;2023-01-09T09:25:41;97554.13;;;8.98;100.00
9289;BME280;4683;50.864;12.086;2023-01-09T09:28:11;97559.91;;;9.20;100.00
9289;BME280;4683;50.864;12.086;2023-01-09T09:30:40;97567.16;;;9.31;100.00
9289;BME280;4683;50.864;12.086;2023-01-09T09:33:08;97577.94;;;9.23;100.00
9289;BME280;4683;50.864;12.086;2023-01-09T09:35:38;97578.69;;;9.30;100.00
9289;BME280;4683;50.864;12.086;2023-01-09T09:38:07;97586.28;;;9.51;100.00
9289;BME280;4683;50.864;12.086;2023-01-09T09:41:03;97596.19;;;9.56;100.00
9289;BME280;4683;50.864;12.086;2023-01-09T09:44:23;97599.00;;;9.61;100.00
9289;BME280;4683;50.864;12.086;2023-01-09T09:47:31;97615.69;;;9.86;100.00
9289;BME280;4683;50.864;12.086;2023-01-09T09:50:23;97627.22;;;9.85;100.00
9289;BME280;4683;50.864;12.086;2023-01-09T09:52:59;97621.44;;;9.70;100.00
9289;BME280;4683;50.864;12.086;2023-01-09T09:55:33;97626.41;;;9.47;100.00
9289;BME280;4683;50.864;12.086;2023-01-09T09:58:09;97626.03;;;9.36;100.00
9289;BME280;4683;50.864;12.086;2023-01-09T10:00:39;97626.00;;;9.50;100.00
9289;BME280;4683;50.864;12.086;2023-01-09T10:03:15;97624.34;;;9.49;100.00
9289;BME280;4683;50.864;12.086;2023-01-09T10:05:49;97627.94;;;9.61;100.00
9289;BME280;4683;50.864;12.086;2023-01-09T10:08:29;97633.22;;;9.61;100.00
9289;BME280;4683;50.864;12.086;2023-01-09T10:11:01;97635.09;;;9.54;100.00
9289;BME280;4683;50.864;12.086;2023-01-09T10:13:31;97638.94;;;9.51;100.00
9289;BME280;4683;50.864;12.086;2023-01-09T10:16:29;97643.84;;;9.41;100.00
9289;BME280;4683;50.864;12.086;2023-01-09T10:19:18;97648.31;;;9.34;100.00
9289;BME280;4683;50.864;12.086;2023-01-09T10:22:01;97643.41;;;9.51;100.00
9289;BME280;4683;50.864;12.086;2023-01-09T10:24:54;97646.19;;;9.56;100.00
9289;BME280;4683;50.864;12.086;2023-01-09T10:27:40;97653.47;;;9.60;100.00
9289;BME280;4683;50.864;12.086;2023-01-09T10:30:27;97659.59;;;9.54;100.00
9289;BME280;4683;50.864;12.086;2023-01-09T10:33:15;97647.41;;;9.60;100.00
9289;BME280;4683;50.864;12.086;2023-01-09T10:38:59;97644.78;;;9.53;100.00
9289;BME280;4683;50.864;12.086;2023-01-09T10:41:34;97650.16;;;9.72;100.00
9289;BME280;4683;50.864;12.086;2023-01-09T10:44:12;97651.34;;;9.82;100.00
9289;BME280;4683;50.864;12.086;2023-01-09T10:46:48;97651.13;;;9.90;100.00
9289;BME280;4683;50.864;12.086;2023-01-09T10:49:23;97645.28;;;9.82;100.00
9289;BME280;4683;50.864;12.086;2023-01-09T10:52:00;97632.47;;;9.85;100.00
9289;BME280;4683;50.864;12.086;2023-01-09T10:54:34;97633.63;;;9.58;100.00
9289;BME280;4683;50.864;12.086;2023-01-09T10:57:11;97640.59;;;9.46;100.00
9289;BME280;4683;50.864;12.086;2023-01-09T10:59:40;97628.84;;;9.42;100.00
9289;BME280;4683;50.864;12.086;2023-01-09T11:02:24;97631.50;;;9.35;100.00
9289;BME280;4683;50.864;12.086;2023-01-09T11:04:55;97628.63;;;9.50;100.00
9289;BME280;4683;50.864;12.086;2023-01-09T11:07:27;97628.34;;;9.64;100.00
9289;BME280;4683;50.864;12.086;2023-01-09T11:09:58;97626.69;;;9.77;100.00
9289;BME280;4683;50.864;12.086;2023-01-09T11:12:29;97626.63;;;9.83;100.00
9289;BME280;4683;50.864;12.086;2023-01-09T11:15:26;97629.84;;;9.85;100.00
9289;BME280;4683;50.864;12.086;2023-01-09T11:18:20;97636.22;;;10.03;100.00
9289;BME280;4683;50.864;12.086;2023-01-09T11:20:50;97636.28;;;9.96;100.00
9289;BME280;4683;50.864;12.086;2023-01-09T11:23:31;97627.56;;;9.96;100.00
9289;BME280;4683;50.864;12.086;2023-01-09T11:26:01;97622.88;;;9.98;100.00
9289;BME280;4683;50.864;12.086;2023-01-09T11:28:32;97628.38;;;9.96;100.00
9289;BME280;4683;50.864;12.086;2023-01-09T11:31:02;97625.09;;;9.69;100.00
9289;BME280;4683;50.864;12.086;2023-01-09T11:33:36;97624.22;;;9.75;100.00
9289;BME280;4683;50.864;12.086;2023-01-09T11:36:13;97623.75;;;9.91;100.00
9289;BME280;4683;50.864;12.086;2023-01-09T11:38:49;97631.09;;;9.76;100.00
9289;BME280;4683;50.864;12.086;2023-01-09T11:41:22;97627.47;;;9.77;100.00
9289;BME280;4683;50.864;12.086;2023-01-09T11:43:54;97630.75;;;9.73;100.00
9289;BME280;4683;50.864;12.086;2023-01-09T11:46:35;97634.75;;;9.75;100.00
9289;BME280;4683;50.864;12.086;2023-01-09T11:49:21;97635.09;;;9.85;100.00
9289;BME280;4683;50.864;12.086;2023-01-09T11:52:14;97637.09;;;9.90;100.00
9289;BME280;4683;50.864;12.086;2023-01-09T11:54:49;97632.28;;;9.87;100.00
9289;BME280;4683;50.864;12.086;2023-01-09T11:57:21;97631.84;;;9.90;100.00
9289;BME280;4683;50.864;12.086;2023-01-09T11:59:50;97631.47;;;9.86;100.00
9289;BME280;4683;50.864;12.086;2023-01-09T12:02:50;97627.94;;;9.61;100.00
9289;BME280;4683;50.864;12.086;2023-01-09T12:05:33;97634.69;;;9.50;100.00
9289;BME280;4683;50.864;12.086;2023-01-09T12:08:23;97636.47;;;9.63;100.00
9289;BME280;4683;50.864;12.086;2023-01-09T12:11:12;97644.53;;;9.68;100.00
9289;BME280;4683;50.864;12.086;2023-01-09T12:17:42;97648.66;;;9.89;100.00
9289;BME280;4683;50.864;12.086;2023-01-09T12:20:27;97652.47;;;10.00;100.00
9289;BME280;4683;50.864;12.086;2023-01-09T12:23:15;97654.84;;;10.08;100.00
9289;BME280;4683;50.864;12.086;2023-01-09T12:25:56;97653.50;;;10.30;100.00
9289;BME280;4683;50.864;12.086;2023-01-09T12:32:04;97667.38;;;10.51;100.00
9289;BME280;4683;50.864;12.086;2023-01-09T12:34:57;97666.22;;;10.02;100.00
9289;BME280;4683;50.864;12.086;2023-01-09T12:37:51;97670.56;;;10.21;100.00
9289;BME280;4683;50.864;12.086;2023-01-09T12:40:44;97658.63;;;10.25;100.00
9289;BME280;4683;50.864;12.086;2023-01-09T12:43:22;97664.22;;;10.35;100.00
9289;BME280;4683;50.864;12.086;2023-01-09T12:46:06;97663.69;;;10.20;100.00
9289;BME280;4683;50.864;12.086;2023-01-09T12:49:04;97668.28;;;10.00;100.00
9289;BME280;4683;50.864;12.086;2023-01-09T12:51:40;97674.31;;;10.07;100.00
9289;BME280;4683;50.864;12.086;2023-01-09T12:54:17;97673.56;;;10.00;100.00
9289;BME280;4683;50.864;12.086;2023-01-09T12:56:54;97686.66;;;9.68;100.00
9289;BME280;4683;50.864;12.086;2023-01-09T12:59:30;97699.72;;;9.36;100.00
9289;BME280;4683;50.864;12.086;2023-01-09T13:02:10;97697.53;;;9.27;100.00
9289;BME280;4683;50.864;12.086;2023-01-09T13:04:47;97716.31;;;9.30;100.00
9289;BME280;4683;50.864;12.086;2023-01-09T13:07:23;97716.75;;;9.07;100.00
9289;BME280;4683;50.864;12.086;2023-01-09T13:10:00;97709.91;;;8.86;100.00
9289;BME280;4683;50.864;12.086;2023-01-09T13:12:35;97707.47;;;8.92;100.00
9289;BME280;4683;50.864;12.086;2023-01-09T13:15:25;97713.16;;;8.82;100.00
9289;BME280;4683;50.864;12.086;2023-01-09T13:17:59;97714.75;;;8.76;100.00
9289;BME280;4683;50.864;12.086;2023-01-09T13:20:37;97711.13;;;8.64;100.00
9289;BME280;4683;50.864;12.086;2023-01-09T13:23:12;97717.59;;;8.68;100.00
9289;BME280;4683;50.864;12.086;2023-01-09T13:25:47;97715.38;;;8.65;100.00
9289;BME280;4683;50.864;12.086;2023-01-09T13:28:20;97712.34;;;8.55;100.00
9289;BME280;4683;50.864;12.086;2023-01-09T13:31:41;97707.88;;;8.42;100.00
9289;BME280;4683;50.864;12.086;2023-01-09T13:34:19;97711.31;;;8.56;100.00
9289;BME280;4683;50.864;12.086;2023-01-09T13:36:50;97718.41;;;8.55;100.00
9289;BME280;4683;50.864;12.086;2023-01-09T13:39:22;97723.25;;;8.65;100.00
9289;BME280;4683;50.864;12.086;2023-01-09T13:41:58;97729.31;;;8.66;100.00
9289;BME280;4683;50.864;12.086;2023-01-09T13:44:53;97730.94;;;8.67;100.00
9289;BME280;4683;50.864;12.086;2023-01-09T13:47:25;97737.00;;;8.80;100.00
9289;BME280;4683;50.864;12.086;2023-01-09T13:50:21;97734.19;;;8.88;100.00
9289;BME280;4683;50.864;12.086;2023-01-09T13:52:51;97731.13;;;8.98;100.00
9289;BME280;4683;50.864;12.086;2023-01-09T13:55:30;97740.03;;;8.97;100.00
9289;BME280;4683;50.864;12.086;2023-01-09T13:58:29;97747.13;;;8.90;100.00
9289;BME280;4683;50.864;12.086;2023-01-09T14:01:01;97739.03;;;8.92;100.00